Time;durP1;ratioP1;P1;durP2;ratioP2;P2;SDS_P1;SDS_P2;PMS_P1;PMS_P2;Temp;Humidity;BMP_temperature;BMP_pressure;BME280_temperature;BME280_humidity;BME280_pressure;Samples;Min_cycle;Max_cycle;Signal;HPM_P1;HPM_P2
2022/06/14 00:00:53;;;;;;;5.00;2.80;;;10.20;87.20;;;;;;4162545;28;20207;-71
2022/06/14 00:02:54;;;;;;;3.50;2.47;;;10.20;86.70;;;;;;4162618;28;20172;-71
2022/06/14 00:04:54;;;;;;;7.13;3.13;;;10.30;86.20;;;;;;4162526;28;20256;-71
2022/06/14 00:06:55;;;;;;;3.33;2.63;;;10.20;86.30;;;;;;4161935;28;21464;-71
2022/06/14 00:08:55;;;;;;;4.27;2.83;;;10.20;87.50;;;;;;4162449;28;20898;-71
2022/06/14 00:10:58;;;;;;;4.13;2.70;;;10.10;87.60;;;;;;4162735;28;20650;-71
2022/06/14 00:12:59;;;;;;;3.17;2.67;;;10.10;87.70;;;;;;4162666;28;20187;-71
2022/06/14 00:14:59;;;;;;;3.33;2.53;;;10.10;87.80;;;;;;4161080;28;20286;-71
2022/06/14 00:17:00;;;;;;;3.80;2.33;;;10.10;87.80;;;;;;4161952;28;20231;-72
2022/06/14 00:19:01;;;;;;;4.20;2.90;;;10.10;87.20;;;;;;4162651;28;20199;-71
2022/06/14 00:21:02;;;;;;;4.43;3.20;;;10.10;87.40;;;;;;4162619;28;20193;-72
2022/06/14 00:23:02;;;;;;;3.00;2.60;;;10.00;87.90;;;;;;4162493;28;20219;-72
2022/06/14 00:25:04;;;;;;;5.10;2.53;;;9.90;88.40;;;;;;4162518;28;20205;-72
2022/06/14 00:27:05;;;;;;;4.53;2.83;;;9.90;88.80;;;;;;4162150;28;20278;-72
2022/06/14 00:29:05;;;;;;;3.67;2.90;;;9.80;88.90;;;;;;4164735;28;20191;-72
2022/06/14 00:31:09;;;;;;;3.40;2.83;;;9.80;89.40;;;;;;4165904;28;20760;-72
2022/06/14 00:33:10;;;;;;;5.57;3.00;;;9.80;90.00;;;;;;4165914;28;20246;-72
2022/06/14 00:35:11;;;;;;;3.77;2.90;;;9.80;89.60;;;;;;4165340;28;20208;-72
2022/06/14 00:37:18;;;;;;;2.87;2.30;;;9.80;90.00;;;;;;4165412;28;20589;-72
2022/06/14 00:39:19;;;;;;;5.73;2.60;;;9.70;90.20;;;;;;4165801;28;20235;-72
2022/06/14 00:41:40;;;;;;;3.90;3.10;;;9.60;90.40;;;;;;4165654;28;20185;-72
2022/06/14 00:43:40;;;;;;;4.10;3.37;;;9.60;90.60;;;;;;4165626;28;20256;-72
2022/06/14 00:45:41;;;;;;;4.53;2.77;;;9.60;90.90;;;;;;4164819;28;20266;-72
2022/06/14 00:48:27;;;;;;;4.07;3.10;;;9.60;90.80;;;;;;4165218;28;20720;-72
2022/06/14 00:50:36;;;;;;;4.90;2.67;;;9.60;91.00;;;;;;4164142;28;20307;-72
2022/06/14 00:52:42;;;;;;;4.77;3.30;;;9.50;91.10;;;;;;4165730;28;20507;-73
2022/06/14 00:54:47;;;;;;;5.73;3.30;;;9.50;91.40;;;;;;4165403;28;20208;-72
2022/06/14 00:57:00;;;;;;;4.57;3.03;;;9.50;91.20;;;;;;4164770;28;20436;-72
2022/06/14 00:59:04;;;;;;;5.17;3.50;;;9.50;91.20;;;;;;4165461;28;20264;-73
2022/06/14 01:01:09;;;;;;;4.87;2.80;;;9.60;91.10;;;;;;4165137;28;20644;-73
2022/06/14 01:03:20;;;;;;;2.87;2.60;;;9.60;91.00;;;;;;4165484;28;20188;-73
2022/06/14 01:06:05;;;;;;;3.97;2.73;;;9.60;91.20;;;;;;4164758;28;20221;-72
2022/06/14 01:07:58;;;;;;;5.93;2.67;;;9.60;91.10;;;;;;4165164;28;20201;-73
2022/06/14 01:10:07;;;;;;;4.60;2.87;;;9.60;91.30;;;;;;4165079;28;20931;-73
2022/06/14 01:12:14;;;;;;;4.47;3.33;;;9.50;91.40;;;;;;4163719;28;20178;-74
2022/06/14 01:14:19;;;;;;;3.90;2.90;;;9.40;91.70;;;;;;4165363;28;20206;-73
2022/06/14 01:16:20;;;;;;;4.60;3.03;;;9.50;91.80;;;;;;4164549;28;20187;-73
2022/06/14 01:18:23;;;;;;;3.33;2.77;;;9.50;91.70;;;;;;4165096;28;20818;-73
2022/06/14 01:20:24;;;;;;;4.37;3.20;;;9.50;91.70;;;;;;4164566;28;20198;-73
2022/06/14 01:22:27;;;;;;;4.80;3.17;;;9.40;91.70;;;;;;4164169;28;20232;-73
2022/06/14 01:24:28;;;;;;;5.33;2.70;;;9.40;91.80;;;;;;4164023;28;20208;-73
2022/06/14 01:26:31;;;;;;;5.83;3.17;;;9.40;91.80;;;;;;4163506;28;20254;-73
2022/06/14 01:28:32;;;;;;;3.77;2.93;;;9.40;91.70;;;;;;4163942;28;20179;-73
2022/06/14 01:30:47;;;;;;;3.87;3.23;;;9.40;91.90;;;;;;4163741;28;20463;-73
2022/06/14 01:33:17;;;;;;;4.70;3.07;;;9.40;91.80;;;;;;4163860;28;20412;-73
2022/06/14 01:35:23;;;;;;;2.87;2.63;;;9.30;92.10;;;;;;4157754;28;20623;-74
2022/06/14 01:37:23;;;;;;;4.93;2.90;;;9.20;92.20;;;;;;4163648;28;20484;-73
2022/06/14 01:39:25;;;;;;;3.37;2.83;;;9.10;92.60;;;;;;4163195;28;20923;-73
2022/06/14 01:41:28;;;;;;;4.57;3.60;;;9.00;93.10;;;;;;4178813;28;20186;-73
2022/06/14 01:43:35;;;;;;;3.33;3.03;;;9.10;93.00;;;;;;4178903;28;21164;-73
2022/06/14 01:45:45;;;;;;;4.43;3.20;;;9.10;93.20;;;;;;4179724;28;20443;-73
2022/06/14 01:47:58;;;;;;;3.80;3.33;;;9.00;93.40;;;;;;4180314;28;20427;-73
2022/06/14 01:52:51;;;;;;;7.13;3.17;;;9.00;93.50;;;;;;4180590;28;20469;-73
2022/06/14 01:55:20;;;;;;;3.47;3.17;;;8.90;94.00;;;;;;4179931;28;20840;-73
2022/06/14 01:57:31;;;;;;;4.43;3.33;;;8.90;93.80;;;;;;4180161;28;20414;-73
2022/06/14 01:59:45;;;;;;;3.33;2.80;;;8.80;94.20;;;;;;4180223;28;20415;-73
2022/06/14 02:02:00;;;;;;;5.07;3.50;;;8.80;94.20;;;;;;4178580;28;20461;-73
2022/06/14 02:04:37;;;;;;;4.83;3.23;;;8.80;94.30;;;;;;4178472;28;20872;-73
2022/06/14 02:07:17;;;;;;;4.47;3.67;;;8.80;94.20;;;;;;4162879;28;20932;-73
2022/06/14 02:09:23;;;;;;;5.83;4.13;;;8.80;94.20;;;;;;4163297;28;20427;-73
2022/06/14 02:11:31;;;;;;;4.57;3.50;;;8.70;94.50;;;;;;4163359;28;20411;-74
2022/06/14 02:13:55;;;;;;;5.67;3.40;;;8.70;94.60;;;;;;4162239;28;20427;-73
2022/06/14 02:16:13;;;;;;;4.87;3.60;;;8.70;94.60;;;;;;4174308;28;20467;-73
2022/06/14 02:18:31;;;;;;;8.17;3.57;;;8.60;94.70;;;;;;4179217;28;20418;-74
2022/06/14 02:20:38;;;;;;;5.97;3.77;;;8.60;94.90;;;;;;4142190;28;1075766;-73
2022/06/14 02:22:45;;;;;;;5.40;3.30;;;8.60;95.00;;;;;;4180307;28;20176;-74
2022/06/14 02:24:53;;;;;;;4.40;3.63;;;8.60;95.00;;;;;;4178614;28;20458;-73
2022/06/14 02:27:31;;;;;;;6.30;3.83;;;8.50;95.60;;;;;;4179725;28;20422;-73
2022/06/14 02:29:47;;;;;;;3.60;3.20;;;8.50;95.40;;;;;;4179065;28;20446;-74
2022/06/14 02:31:52;;;;;;;6.90;3.73;;;8.50;95.60;;;;;;4177245;28;20454;-74
2022/06/14 02:34:16;;;;;;;7.87;3.77;;;8.60;95.70;;;;;;4180143;28;20419;-73
2022/06/14 02:36:33;;;;;;;6.03;3.83;;;8.50;95.50;;;;;;4179820;28;20419;-73
2022/06/14 02:38:56;;;;;;;5.67;3.67;;;8.50;95.70;;;;;;4180300;28;20419;-73
2022/06/14 02:41:04;;;;;;;6.47;3.93;;;8.40;95.70;;;;;;4180300;28;20494;-74
2022/06/14 02:43:29;;;;;;;5.13;3.90;;;8.40;96.20;;;;;;4180436;28;20425;-74
2022/06/14 02:45:39;;;;;;;5.67;3.97;;;8.30;96.60;;;;;;4179587;28;20491;-74
2022/06/14 02:47:50;;;;;;;6.40;3.73;;;8.30;96.50;;;;;;4180542;28;20414;-74
2022/06/14 02:50:18;;;;;;;5.13;3.70;;;8.30;96.60;;;;;;4180260;28;20437;-74
2022/06/14 02:52:42;;;;;;;5.77;3.50;;;8.30;96.50;;;;;;4177255;28;20431;-76
2022/06/14 02:54:52;;;;;;;4.57;3.10;;;8.30;96.40;;;;;;4179730;28;20426;-74
2022/06/14 02:57:05;;;;;;;4.70;3.60;;;8.30;96.80;;;;;;4179740;28;20410;-74
2022/06/14 02:59:21;;;;;;;9.70;4.33;;;8.30;96.80;;;;;;4179959;28;20423;-74
2022/06/14 03:01:32;;;;;;;11.20;4.30;;;8.30;97.00;;;;;;4180483;28;20466;-75
2022/06/14 03:03:47;;;;;;;5.63;4.30;;;8.20;97.00;;;;;;4180418;28;20411;-75
2022/06/14 03:06:26;;;;;;;9.63;3.80;;;8.20;97.10;;;;;;4179450;28;20438;-75
2022/06/14 03:08:29;;;;;;;5.70;3.70;;;8.10;97.30;;;;;;4179930;28;20403;-74
2022/06/14 03:10:39;;;;;;;8.67;3.80;;;8.10;97.70;;;;;;4179866;28;20506;-74
2022/06/14 03:12:39;;;;;;;7.53;4.57;;;8.10;97.70;;;;;;4179839;28;20969;-74
2022/06/14 03:14:48;;;;;;;4.90;4.00;;;8.10;97.50;;;;;;4179498;28;20445;-74
2022/06/14 03:17:15;;;;;;;9.17;5.03;;;8.00;97.80;;;;;;4178990;28;20180;-74
2022/06/14 03:19:24;;;;;;;4.27;3.87;;;8.00;97.80;;;;;;4179387;28;20419;-75
2022/06/14 03:21:51;;;;;;;4.30;3.90;;;8.00;97.90;;;;;;4179152;28;21225;-74
2022/06/14 03:24:13;;;;;;;8.17;5.00;;;7.90;98.30;;;;;;4172411;28;20824;-74
2022/06/14 03:26:17;;;;;;;6.53;4.30;;;7.90;98.50;;;;;;4178621;28;20436;-75
2022/06/14 03:28:36;;;;;;;6.93;4.90;;;7.90;98.40;;;;;;4178035;28;20835;-74
2022/06/14 03:31:01;;;;;;;5.97;4.90;;;7.80;98.60;;;;;;4179615;28;20418;-74
2022/06/14 03:33:17;;;;;;;6.43;4.77;;;7.90;98.60;;;;;;4174931;28;20427;-74
2022/06/14 03:35:32;;;;;;;8.10;4.43;;;7.90;98.70;;;;;;4178927;28;20434;-74
2022/06/14 03:37:32;;;;;;;4.87;4.07;;;7.90;99.30;;;;;;4179482;28;20474;-75
2022/06/14 03:39:41;;;;;;;7.23;4.70;;;7.90;99.00;;;;;;4178044;28;20979;-75
2022/06/14 03:41:46;;;;;;;5.13;4.63;;;7.90;99.10;;;;;;4179481;28;20200;-74
2022/06/14 03:43:49;;;;;;;5.97;5.20;;;7.90;99.20;;;;;;4179232;28;20410;-75
2022/06/14 03:46:04;;;;;;;9.40;5.07;;;7.90;98.90;;;;;;4178607;28;20427;-75
2022/06/14 03:48:05;;;;;;;6.20;5.00;;;7.90;98.90;;;;;;4180639;28;20697;-74
2022/06/14 03:50:09;;;;;;;6.17;4.53;;;8.00;98.80;;;;;;4182158;28;20415;-75
2022/06/14 03:52:24;;;;;;;8.80;4.67;;;8.00;98.90;;;;;;4181891;28;20426;-73
2022/06/14 03:54:34;;;;;;;7.73;5.23;;;8.00;98.80;;;;;;4180525;28;20431;-73
2022/06/14 03:57:24;;;;;;;5.10;4.40;;;8.00;99.20;;;;;;4176527;28;20465;-75
2022/06/14 03:59:52;;;;;;;5.73;4.33;;;8.10;98.60;;;;;;4165243;28;20411;-73
2022/06/14 04:02:53;;;;;;;5.87;4.30;;;8.00;97.70;;;;;;4165401;28;20966;-75
2022/06/14 04:04:56;;;;;;;7.50;4.23;;;8.00;98.30;;;;;;4163961;28;20439;-74
2022/06/14 04:07:26;;;;;;;8.47;4.83;;;8.00;98.40;;;;;;4165072;28;20415;-75
2022/06/14 04:09:40;;;;;;;7.13;3.90;;;8.00;98.50;;;;;;4165057;28;20412;-74
2022/06/14 04:11:49;;;;;;;7.27;4.87;;;8.10;98.30;;;;;;4164154;28;20981;-75
2022/06/14 04:13:59;;;;;;;5.53;4.93;;;8.10;98.50;;;;;;4165161;28;20883;-75
2022/06/14 04:16:26;;;;;;;6.40;5.00;;;8.10;98.50;;;;;;4163366;28;20955;-76
2022/06/14 04:18:36;;;;;;;9.80;5.27;;;8.10;98.40;;;;;;4163973;28;20507;-75
2022/06/14 04:20:42;;;;;;;7.00;5.07;;;8.10;98.30;;;;;;4165333;28;20471;-75
2022/06/14 04:23:10;;;;;;;14.77;6.17;;;8.10;98.70;;;;;;4165228;28;20412;-74
2022/06/14 04:25:11;;;;;;;8.50;4.90;;;8.20;98.70;;;;;;4164806;28;20433;-74
2022/06/14 04:27:16;;;;;;;7.03;5.07;;;8.20;98.80;;;;;;4165255;28;20502;-76
2022/06/14 04:29:39;;;;;;;9.43;5.63;;;8.20;98.80;;;;;;4165183;28;20255;-74
2022/06/14 04:31:55;;;;;;;7.13;5.20;;;8.20;98.80;;;;;;4180243;28;20455;-74
2022/06/14 04:34:06;;;;;;;6.77;5.07;;;8.30;98.90;;;;;;4181563;28;20425;-74
2022/06/14 04:36:15;;;;;;;7.13;4.77;;;8.30;98.90;;;;;;4179692;28;21177;-77
2022/06/14 04:38:19;;;;;;;8.30;4.20;;;8.30;98.70;;;;;;4181591;28;20461;-75
2022/06/14 04:40:25;;;;;;;10.90;5.17;;;8.30;99.00;;;;;;4181408;28;20411;-74
2022/06/14 04:42:39;;;;;;;6.97;4.90;;;8.30;99.10;;;;;;4181616;28;20570;-75
2022/06/14 04:44:51;;;;;;;9.27;5.23;;;8.40;99.10;;;;;;4181337;28;20440;-75
2022/06/14 04:47:00;;;;;;;8.87;5.27;;;8.40;99.20;;;;;;4180947;28;20407;-75
2022/06/14 04:49:05;;;;;;;13.13;5.57;;;8.50;99.00;;;;;;4180204;28;20505;-75
2022/06/14 04:51:27;;;;;;;8.37;5.53;;;8.50;99.10;;;;;;4181610;28;20430;-75
2022/06/14 04:53:50;;;;;;;8.17;5.03;;;8.50;99.20;;;;;;4181627;28;20800;-75
2022/06/14 04:55:59;;;;;;;6.07;4.80;;;8.60;99.10;;;;;;4179792;28;20893;-75
2022/06/14 04:58:16;;;;;;;6.60;5.37;;;8.60;98.90;;;;;;4181479;28;21445;-75
2022/06/14 05:00:28;;;;;;;6.07;5.20;;;8.60;98.90;;;;;;4181549;28;20419;-74
2022/06/14 05:03:12;;;;;;;9.03;5.07;;;8.70;99.00;;;;;;4181389;28;20247;-76
2022/06/14 05:05:19;;;;;;;8.03;4.97;;;8.90;98.60;;;;;;4181135;28;20434;-75
2022/06/14 05:07:23;;;;;;;9.07;5.67;;;8.90;98.50;;;;;;4181305;28;20252;-75
2022/06/14 05:09:31;;;;;;;9.47;6.83;;;8.90;98.60;;;;;;4181348;28;21391;-75
2022/06/14 05:11:39;;;;;;;7.63;5.23;;;8.90;98.30;;;;;;4181288;28;20462;-76
2022/06/14 05:14:03;;;;;;;8.47;5.30;;;9.10;98.10;;;;;;4181456;28;20416;-75
2022/06/14 05:16:10;;;;;;;6.77;4.67;;;9.10;98.00;;;;;;4183658;28;20438;-75
2022/06/14 05:18:30;;;;;;;7.70;5.20;;;9.20;97.90;;;;;;4184632;28;20222;-75
2022/06/14 05:20:48;;;;;;;7.33;5.10;;;9.20;97.90;;;;;;4184177;28;20230;-75
2022/06/14 05:23:03;;;;;;;10.17;5.10;;;9.30;97.40;;;;;;4184156;28;20772;-75
2022/06/14 05:25:06;;;;;;;7.73;5.23;;;9.30;97.40;;;;;;4183659;28;20198;-75
2022/06/14 05:27:32;;;;;;;6.20;5.33;;;9.40;97.50;;;;;;4182544;28;20976;-75
2022/06/14 05:29:44;;;;;;;9.33;4.70;;;9.50;97.40;;;;;;4183984;28;20266;-75
2022/06/14 05:31:59;;;;;;;9.73;5.50;;;9.50;97.10;;;;;;4184361;28;20178;-75
2022/06/14 05:34:14;;;;;;;9.57;4.83;;;9.60;97.30;;;;;;4183969;28;20183;-75
2022/06/14 05:36:24;;;;;;;7.83;5.13;;;9.60;97.50;;;;;;4183010;28;20180;-74
2022/06/14 05:38:30;;;;;;;8.13;4.93;;;9.70;97.50;;;;;;4183769;28;20855;-75
2022/06/14 05:40:40;;;;;;;7.87;5.40;;;9.70;97.50;;;;;;4183266;28;20216;-75
2022/06/14 05:42:52;;;;;;;8.73;5.00;;;9.80;97.50;;;;;;4183434;28;20230;-75
2022/06/14 05:44:58;;;;;;;13.80;5.80;;;9.90;97.50;;;;;;4183393;28;20238;-74
2022/06/14 05:47:08;;;;;;;8.23;5.47;;;9.90;97.40;;;;;;4182800;28;20557;-76
2022/06/14 05:49:16;;;;;;;8.23;5.40;;;10.10;97.40;;;;;;4181557;28;20172;-75
2022/06/14 05:51:26;;;;;;;6.73;5.13;;;10.10;97.20;;;;;;4167352;28;20184;-74
2022/06/14 05:53:45;;;;;;;9.07;5.63;;;10.20;96.40;;;;;;4166986;28;20168;-75
2022/06/14 05:55:52;;;;;;;8.43;5.57;;;10.40;96.10;;;;;;4164684;28;20590;-74
2022/06/14 05:58:13;;;;;;;5.70;4.87;;;10.40;96.00;;;;;;4165112;28;20172;-74
2022/06/14 06:00:20;;;;;;;10.40;5.37;;;10.50;95.80;;;;;;4166617;28;20180;-75
2022/06/14 06:02:48;;;;;;;10.63;4.97;;;10.50;95.90;;;;;;4165605;28;20274;-75
2022/06/14 06:05:02;;;;;;;6.77;5.30;;;10.60;96.20;;;;;;4166696;28;20240;-75
2022/06/14 06:07:09;;;;;;;6.60;5.07;;;10.60;95.80;;;;;;4165930;28;20267;-75
2022/06/14 06:09:23;;;;;;;10.97;5.83;;;10.70;96.00;;;;;;4165796;28;20180;-75
2022/06/14 06:11:43;;;;;;;9.67;6.17;;;10.80;95.80;;;;;;4163968;28;20185;-74
2022/06/14 06:13:52;;;;;;;8.47;5.63;;;11.10;95.20;;;;;;4163858;28;20406;-74
2022/06/14 06:16:16;;;;;;;10.77;5.80;;;11.20;94.80;;;;;;4163178;28;20686;-74
2022/06/14 06:18:47;;;;;;;7.10;5.13;;;11.30;94.80;;;;;;4157309;28;20199;-74
2022/06/14 06:20:57;;;;;;;7.53;4.97;;;11.40;94.40;;;;;;4163666;28;20275;-75
2022/06/14 06:23:02;;;;;;;4.83;4.43;;;11.60;94.30;;;;;;4163614;28;20271;-75
2022/06/14 06:25:14;;;;;;;9.87;5.47;;;11.70;94.00;;;;;;4163170;28;20201;-74
2022/06/14 06:27:15;;;;;;;6.43;4.67;;;11.70;93.80;;;;;;4162790;28;20571;-75
2022/06/14 06:29:36;;;;;;;6.90;5.57;;;11.80;93.60;;;;;;4163599;28;20197;-75
2022/06/14 06:31:39;;;;;;;6.37;4.80;;;12.00;93.50;;;;;;4163684;28;20173;-74
2022/06/14 06:33:45;;;;;;;5.37;4.50;;;12.00;93.30;;;;;;4163527;28;20181;-75
2022/06/14 06:35:58;;;;;;;9.57;4.20;;;12.10;92.90;;;;;;4163133;28;20204;-75
2022/06/14 06:38:16;;;;;;;6.93;3.40;;;12.20;92.90;;;;;;4163530;28;20176;-75
2022/06/14 06:40:24;;;;;;;5.50;4.03;;;12.20;92.60;;;;;;4163293;28;20212;-74
2022/06/14 06:42:49;;;;;;;6.13;5.07;;;12.40;92.60;;;;;;4163395;28;20729;-75
2022/06/14 06:45:13;;;;;;;5.03;4.30;;;12.50;92.30;;;;;;4163199;28;20200;-75
2022/06/14 06:47:44;;;;;;;5.87;3.53;;;12.50;92.50;;;;;;4163059;28;20181;-75
2022/06/14 06:50:00;;;;;;;4.30;3.07;;;12.90;90.20;;;;;;4163348;28;20173;-75
2022/06/14 06:52:04;;;;;;;5.90;3.43;;;13.10;88.10;;;;;;4163270;28;20727;-76
2022/06/14 06:54:31;;;;;;;6.20;3.43;;;13.20;87.60;;;;;;4163220;28;20177;-74
2022/06/14 06:56:40;;;;;;;7.77;3.13;;;13.30;85.40;;;;;;4162571;28;20177;-75
2022/06/14 06:58:56;;;;;;;7.83;3.20;;;13.60;83.60;;;;;;4163257;28;20176;-71
2022/06/14 07:00:59;;;;;;;11.60;3.23;;;13.50;86.10;;;;;;4163081;28;20688;-72
2022/06/14 07:03:09;;;;;;;7.07;3.40;;;13.80;84.80;;;;;;4163479;28;20184;-71
2022/06/14 07:05:14;;;;;;;4.77;2.60;;;13.90;83.40;;;;;;4163081;28;20192;-71
2022/06/14 07:07:30;;;;;;;6.63;3.77;;;14.20;80.80;;;;;;4162518;28;20176;-72
2022/06/14 07:09:45;;;;;;;4.20;2.43;;;14.50;74.20;;;;;;4162774;28;20172;-73
2022/06/14 07:11:55;;;;;;;5.70;3.00;;;14.60;73.50;;;;;;4161739;28;20181;-73
2022/06/14 07:14:12;;;;;;;5.37;3.00;;;14.70;75.50;;;;;;4161897;28;20290;-74
2022/06/14 07:16:24;;;;;;;3.80;2.40;;;14.80;71.30;;;;;;4161245;28;20181;-73
2022/06/14 07:18:30;;;;;;;4.47;3.03;;;15.10;70.00;;;;;;4161811;28;20207;-73
2022/06/14 07:20:52;;;;;;;6.60;2.97;;;15.20;70.00;;;;;;4161646;28;20188;-73
2022/06/14 07:23:20;;;;;;;4.27;2.60;;;15.20;74.00;;;;;;4162062;28;20224;-73
2022/06/14 07:25:27;;;;;;;3.87;3.47;;;15.30;71.20;;;;;;4144368;28;20292;-73
2022/06/14 07:27:35;;;;;;;4.60;2.97;;;15.40;69.40;;;;;;4177289;28;20606;-73
2022/06/14 07:29:44;;;;;;;5.03;2.50;;;15.60;70.90;;;;;;4179019;28;20181;-73
2022/06/14 07:31:58;;;;;;;4.30;2.20;;;15.50;72.40;;;;;;4179199;28;20608;-73
2022/06/14 07:34:00;;;;;;;6.77;3.07;;;15.60;69.20;;;;;;4179112;28;20180;-72
2022/06/14 07:36:10;;;;;;;13.23;11.43;;;15.80;66.60;;;;;;4178354;28;20231;-72
2022/06/14 07:38:24;;;;;;;5.73;2.80;;;15.90;65.90;;;;;;4178742;28;20184;-72
2022/06/14 07:40:32;;;;;;;3.83;2.33;;;15.90;65.00;;;;;;4178762;28;20188;-72
2022/06/14 07:43:05;;;;;;;4.37;2.37;;;16.20;62.80;;;;;;4179034;28;20259;-72
2022/06/14 07:45:20;;;;;;;5.97;2.00;;;16.40;61.20;;;;;;4166420;28;20208;-73
2022/06/14 07:47:38;;;;;;;4.97;2.83;;;16.60;61.30;;;;;;4178880;28;20234;-72
2022/06/14 07:50:14;;;;;;;2.80;2.20;;;16.60;61.90;;;;;;4166393;28;20185;-72
2022/06/14 07:52:42;;;;;;;8.60;8.00;;;16.70;61.70;;;;;;4162209;28;21019;-73
2022/06/14 07:54:47;;;;;;;6.07;2.30;;;16.80;58.60;;;;;;4162397;28;20201;-72
2022/06/14 07:57:06;;;;;;;13.47;5.70;;;16.80;58.40;;;;;;4161661;28;20665;-72
2022/06/14 07:59:18;;;;;;;3.10;2.40;;;16.90;58.60;;;;;;4162496;28;20267;-72
2022/06/14 08:01:39;;;;;;;5.13;2.53;;;17.00;57.30;;;;;;4161234;28;20266;-72
2022/06/14 08:03:42;;;;;;;2.43;2.07;;;17.10;56.80;;;;;;4162085;28;20185;-72
2022/06/14 08:05:47;;;;;;;4.90;2.23;;;17.20;56.50;;;;;;4160276;28;20289;-72
2022/06/14 08:07:51;;;;;;;6.47;3.23;;;17.30;56.40;;;;;;4162039;28;20169;-73
2022/06/14 08:10:00;;;;;;;4.13;2.13;;;17.30;56.40;;;;;;4162228;28;20204;-73
2022/06/14 08:12:06;;;;;;;8.00;3.03;;;17.50;56.00;;;;;;4162211;28;20192;-73
2022/06/14 08:14:14;;;;;;;18.17;3.80;;;17.70;55.20;;;;;;4162067;28;20218;-73
2022/06/14 08:16:16;;;;;;;5.20;2.97;;;17.90;56.50;;;;;;4161709;28;20225;-72
2022/06/14 08:18:36;;;;;;;40.47;8.37;;;18.00;52.20;;;;;;4161723;28;20177;-73
2022/06/14 08:20:51;;;;;;;3.80;2.60;;;17.70;52.40;;;;;;4162113;28;20691;-72
2022/06/14 08:22:59;;;;;;;10.47;8.47;;;17.70;53.50;;;;;;4162113;28;20177;-72
2022/06/14 08:25:05;;;;;;;3.90;3.50;;;17.90;55.00;;;;;;4160413;28;20315;-72
2022/06/14 08:27:21;;;;;;;4.73;2.20;;;17.90;52.40;;;;;;4161662;28;20185;-72
2022/06/14 08:29:30;;;;;;;3.93;2.43;;;18.00;54.20;;;;;;4161997;28;20169;-73
2022/06/14 08:31:52;;;;;;;4.43;2.13;;;18.00;51.80;;;;;;4162176;28;20191;-72
2022/06/14 08:33:59;;;;;;;3.33;2.10;;;18.10;52.20;;;;;;4162092;28;20179;-72
2022/06/14 08:36:11;;;;;;;9.87;8.97;;;18.10;51.60;;;;;;4161387;28;20181;-73
2022/06/14 08:38:33;;;;;;;4.80;2.33;;;18.10;49.90;;;;;;4160745;28;20230;-72
2022/06/14 08:40:46;;;;;;;3.10;2.30;;;18.20;48.70;;;;;;4160443;28;20256;-72
2022/06/14 08:42:54;;;;;;;2.73;2.23;;;18.10;49.30;;;;;;4161992;28;20205;-72
2022/06/14 08:45:07;;;;;;;4.03;2.87;;;18.20;53.50;;;;;;4161784;28;20189;-73
2022/06/14 08:47:40;;;;;;;3.23;1.80;;;18.30;49.90;;;;;;4161412;28;20173;-73
2022/06/14 08:49:58;;;;;;;3.20;1.90;;;18.40;47.50;;;;;;4147346;28;20691;-72
2022/06/14 08:52:32;;;;;;;4.57;2.10;;;18.40;48.40;;;;;;4164954;28;20191;-72
2022/06/14 08:55:09;;;;;;;8.10;7.43;;;18.40;48.20;;;;;;4165120;28;20290;-72
2022/06/14 08:57:46;;;;;;;2.37;1.83;;;18.60;48.00;;;;;;4129810;28;20235;-72
2022/06/14 09:00:06;;;;;;;5.60;2.30;;;18.70;47.60;;;;;;4159572;28;20197;-72
2022/06/14 09:02:25;;;;;;;8.50;4.27;;;19.00;48.90;;;;;;4164777;28;20703;-73
2022/06/14 09:04:32;;;;;;;10.13;9.23;;;19.00;47.60;;;;;;4164829;28;20255;-72
2022/06/14 09:07:00;;;;;;;3.53;2.70;;;18.90;47.70;;;;;;4164367;28;20181;-72
2022/06/14 09:09:34;;;;;;;4.20;2.50;;;19.00;50.00;;;;;;4164735;28;20211;-72
2022/06/14 09:12:07;;;;;;;2.43;1.93;;;19.20;47.30;;;;;;4164862;28;20180;-73
2022/06/14 09:14:44;;;;;;;6.83;6.10;;;19.20;46.40;;;;;;4164667;28;20691;-72
2022/06/14 09:17:11;;;;;;;4.87;2.00;;;19.50;48.00;;;;;;4164314;28;20181;-72
2022/06/14 09:19:16;;;;;;;4.40;2.87;;;19.70;44.40;;;;;;4164458;28;20181;-72
2022/06/14 09:21:41;;;;;;;3.37;1.90;;;19.60;44.10;;;;;;4164493;28;20213;-71
2022/06/14 09:24:19;;;;;;;2.67;1.87;;;19.70;44.00;;;;;;4164616;28;20260;-71
2022/06/14 09:26:54;;;;;;;4.07;2.07;;;19.60;45.00;;;;;;4163963;28;20173;-71
2022/06/14 09:29:11;;;;;;;3.43;1.80;;;19.80;46.40;;;;;;4164489;28;20223;-71
2022/06/14 09:31:21;;;;;;;3.63;2.00;;;20.00;44.10;;;;;;4164389;28;20264;-71
2022/06/14 09:33:37;;;;;;;4.90;3.80;;;20.10;43.10;;;;;;4174257;28;20180;-71
2022/06/14 09:35:51;;;;;;;7.07;6.40;;;20.40;42.00;;;;;;4182552;28;20188;-72
2022/06/14 09:38:17;;;;;;;3.80;2.10;;;20.40;43.30;;;;;;4183097;28;20200;-71
2022/06/14 09:40:53;;;;;;;2.67;2.43;;;20.50;42.70;;;;;;4183108;28;20234;-71
2022/06/14 09:43:22;;;;;;;4.33;2.63;;;20.60;38.40;;;;;;4173692;28;20192;-72
2022/06/14 09:45:57;;;;;;;3.50;3.10;;;20.70;39.50;;;;;;4180602;28;20239;-71
2022/06/14 09:48:36;;;;;;;5.23;4.83;;;21.00;39.30;;;;;;4173165;28;20651;-71
2022/06/14 09:50:51;;;;;;;25.87;24.27;;;20.60;39.00;;;;;;4142026;28;20200;-71
2022/06/14 09:53:04;;;;;;;22.80;21.40;;;20.80;41.70;;;;;;4164878;28;20201;-71
2022/06/14 09:55:14;;;;;;;3.97;2.30;;;21.00;40.80;;;;;;4165958;28;20192;-72
2022/06/14 09:57:17;;;;;;;5.70;4.10;;;21.10;41.60;;;;;;4164372;28;20227;-72
2022/06/14 09:59:36;;;;;;;4.30;2.40;;;21.30;38.70;;;;;;4164596;28;20173;-72
2022/06/14 10:02:05;;;;;;;26.23;24.77;;;21.70;40.70;;;;;;4164607;28;20205;-72
2022/06/14 10:04:12;;;;;;;18.80;17.67;;;21.50;34.00;;;;;;4164633;28;20568;-72
2022/06/14 10:06:49;;;;;;;3.67;3.43;;;21.20;33.10;;;;;;4164232;28;20208;-72
2022/06/14 10:09:21;;;;;;;3.27;2.10;;;21.40;35.50;;;;;;4164288;28;20179;-72
2022/06/14 10:11:48;;;;;;;4.07;3.27;;;21.90;35.20;;;;;;4165044;28;20181;-72
2022/06/14 10:13:57;;;;;;;4.17;2.40;;;22.20;35.40;;;;;;4166188;28;20248;-71
2022/06/14 10:16:25;;;;;;;6.20;2.70;;;22.70;38.20;;;;;;4164036;28;20196;-72
2022/06/14 10:18:42;;;;;;;2.20;1.97;;;22.80;36.00;;;;;;4163956;28;20189;-72
2022/06/14 10:20:55;;;;;;;3.77;3.50;;;22.70;32.50;;;;;;4163875;28;20213;-71
2022/06/14 10:23:45;;;;;;;3.27;2.17;;;22.00;32.20;;;;;;4163794;28;20238;-71
2022/06/14 10:28:38;;;;;;;4.17;2.03;;;22.50;31.80;;;;;;4163825;28;20232;-71
2022/06/14 10:30:57;;;;;;;8.50;8.00;;;22.50;31.70;;;;;;4163537;28;20173;-70
2022/06/14 10:33:14;;;;;;;12.03;11.30;;;22.50;31.00;;;;;;4163590;28;20185;-70
2022/06/14 10:35:32;;;;;;;18.70;17.40;;;22.50;30.80;;;;;;4163079;28;20262;-70
2022/06/14 10:38:01;;;;;;;3.10;2.33;;;22.40;34.10;;;;;;4163577;28;20686;-71
2022/06/14 10:40:24;;;;;;;4.23;3.43;;;22.90;34.90;;;;;;4163119;28;20201;-70
2022/06/14 10:42:37;;;;;;;14.57;13.70;;;24.00;32.30;;;;;;4157757;28;20719;-70
2022/06/14 10:45:02;;;;;;;9.63;4.33;;;24.60;29.30;;;;;;4163236;28;20212;-71
2022/06/14 10:47:21;;;;;;;4.20;3.30;;;24.90;31.00;;;;;;4162940;28;20611;-71
2022/06/14 10:49:35;;;;;;;3.50;2.87;;;25.90;29.40;;;;;;4163326;28;20181;-71
2022/06/14 10:51:39;;;;;;;21.17;19.93;;;26.60;27.70;;;;;;4163197;28;20585;-70
2022/06/14 10:53:48;;;;;;;42.10;39.80;;;26.60;28.60;;;;;;4163239;28;20177;-70
2022/06/14 10:56:10;;;;;;;3.97;3.30;;;26.80;27.30;;;;;;4162553;28;20226;-70
2022/06/14 10:58:48;;;;;;;27.53;26.00;;;26.10;27.90;;;;;;4162882;28;20238;-70
2022/06/14 11:01:17;;;;;;;3.87;3.13;;;26.30;27.80;;;;;;4162953;28;20577;-70
2022/06/14 11:03:44;;;;;;;3.23;2.93;;;25.70;26.80;;;;;;4162941;28;20589;-69
2022/06/14 11:06:12;;;;;;;3.22;2.95;;;27.10;25.40;;;;;;4162581;28;20322;-70
2022/06/14 11:08:46;;;;;;;6.57;6.05;;;26.70;25.60;;;;;;4162860;28;20191;-70
2022/06/14 11:11:25;;;;;;;29.95;28.17;;;26.60;24.90;;;;;;4161637;28;20221;-69
2022/06/14 11:13:57;;;;;;;7.97;7.43;;;27.70;24.60;;;;;;4162556;28;20656;-69
2022/06/14 11:16:50;;;;;;;5.18;2.80;;;28.60;24.00;;;;;;4161097;28;20247;-69
2022/06/14 11:19:15;;;;;;;29.20;27.70;;;29.40;25.70;;;;;;4144242;28;20209;-69
2022/06/14 11:21:33;;;;;;;30.63;28.98;;;30.10;25.40;;;;;;4160451;28;20225;-70
2022/06/14 11:23:45;;;;;;;4.53;4.22;;;29.20;25.80;;;;;;4168921;28;20187;-69
2022/06/14 11:26:06;;;;;;;8.00;7.32;;;29.10;24.70;;;;;;4178360;28;20191;-69
2022/06/14 11:28:28;;;;;;;3.38;2.25;;;30.20;24.10;;;;;;4179181;28;20172;-68
2022/06/14 11:31:09;;;;;;;77.63;73.88;;;31.30;23.40;;;;;;4178884;28;20211;-69
2022/06/14 11:33:09;;;;;;;9.55;5.38;;;30.50;24.60;;;;;;4179213;28;20175;-69
2022/06/14 11:35:25;;;;;;;10.65;9.95;;;29.90;23.80;;;;;;4177539;28;20633;-69
2022/06/14 11:37:58;;;;;;;4.97;4.68;;;30.40;24.20;;;;;;4178986;28;20265;-68
2022/06/14 11:40:16;;;;;;;8.55;8.10;;;31.10;22.90;;;;;;4178990;28;20244;-68
2022/06/14 11:42:22;;;;;;;20.58;19.40;;;30.90;23.00;;;;;;4178849;28;20208;-68
2022/06/14 11:44:36;;;;;;;5.05;4.63;;;30.70;24.10;;;;;;4178843;28;20671;-68
2022/06/14 11:47:00;;;;;;;15.35;14.38;;;30.30;23.50;;;;;;4178005;28;20873;-68
2022/06/14 11:49:20;;;;;;;8.10;7.47;;;29.80;24.80;;;;;;4178991;28;20928;-68
2022/06/14 11:51:39;;;;;;;13.85;13.07;;;29.80;25.10;;;;;;4178841;28;21025;-68